createdAt,value
2023-03-11T00:01:53.511Z,14.48
2023-03-11T00:06:57.376Z,14.51
2023-03-11T00:12:02.740Z,14.53
2023-03-11T00:17:06.425Z,14.39
2023-03-11T00:22:10.262Z,14.45
2023-03-11T00:27:15.544Z,14.55
2023-03-11T00:32:19.431Z,14.21
2023-03-11T00:37:23.178Z,14.23
2023-03-11T00:42:28.477Z,14.19
2023-03-11T00:47:32.197Z,14.26
2023-03-11T00:52:35.898Z,14.27
2023-03-11T00:57:42.175Z,14.43
2023-03-11T01:02:45.942Z,14.67
2023-03-11T01:07:49.869Z,15.06
2023-03-11T01:12:55.369Z,15.00
2023-03-11T01:17:59.047Z,14.85
2023-03-11T01:23:02.703Z,14.58
2023-03-11T01:28:09.002Z,14.57
2023-03-11T01:33:16.590Z,14.50
2023-03-11T01:38:20.431Z,14.09
2023-03-11T01:43:51.200Z,14.01
2023-03-11T01:48:56.554Z,13.84
2023-03-11T01:54:05.977Z,13.70
2023-03-11T01:59:15.125Z,13.56
2023-03-11T02:04:20.706Z,13.36
2023-03-11T02:09:25.208Z,13.06
2023-03-11T02:14:31.980Z,12.93
2023-03-11T02:19:49.496Z,12.74
2023-03-11T02:25:02.350Z,12.70
2023-03-11T02:30:10.486Z,12.58
2023-03-11T02:35:14.239Z,12.42
2023-03-11T02:40:42.953Z,12.28
2023-03-11T02:45:49.380Z,12.19
2023-03-11T02:50:54.129Z,12.01
2023-03-11T02:55:57.745Z,11.93
2023-03-11T03:01:03.134Z,11.90
2023-03-11T03:06:07.266Z,11.66
2023-03-11T03:11:10.944Z,11.46
2023-03-11T03:16:16.336Z,11.14
2023-03-11T03:21:20.009Z,10.92
2023-03-11T03:26:23.647Z,11.09
2023-03-11T03:31:29.109Z,11.24
2023-03-11T03:36:32.824Z,11.23
2023-03-11T03:41:37.124Z,11.21
2023-03-11T03:46:42.426Z,10.82
2023-03-11T03:51:46.086Z,10.83
2023-03-11T03:56:49.775Z,10.79
2023-03-11T04:01:55.149Z,10.56
2023-03-11T04:06:58.838Z,10.75
2023-03-11T04:12:02.492Z,10.79
2023-03-11T04:17:09.793Z,10.74
2023-03-11T04:22:13.556Z,10.84
2023-03-11T04:27:17.261Z,10.70
2023-03-11T04:32:22.613Z,10.74
2023-03-11T04:37:29.603Z,10.77
2023-03-11T04:42:33.277Z,10.76
2023-03-11T04:47:38.568Z,10.81
2023-03-11T04:52:42.238Z,10.80
2023-03-11T04:57:45.932Z,10.87
2023-03-11T05:02:51.433Z,10.77
2023-03-11T05:07:55.094Z,10.70
2023-03-11T05:12:59.454Z,10.78
2023-03-11T05:18:05.054Z,10.79
2023-03-11T05:23:08.712Z,10.84
2023-03-11T05:28:12.457Z,10.80
2023-03-11T05:33:17.762Z,10.81
2023-03-11T05:38:21.393Z,10.80
2023-03-11T05:43:25.021Z,10.78
2023-03-11T05:48:30.328Z,10.86
2023-03-11T05:53:33.984Z,10.83
2023-03-11T05:58:37.622Z,10.76
2023-03-11T06:03:43.326Z,10.73
2023-03-11T06:08:46.977Z,10.74
2023-03-11T06:13:54.318Z,10.62
2023-03-11T06:18:59.642Z,10.63
2023-03-11T06:24:03.510Z,10.51
2023-03-11T06:29:13.218Z,10.47
2023-03-11T06:34:18.628Z,10.34
2023-03-11T06:39:22.272Z,10.25
2023-03-11T06:44:25.913Z,10.13
2023-03-11T06:49:31.215Z,10.07
2023-03-11T06:54:34.910Z,10.04
2023-03-11T06:59:38.960Z,9.97
2023-03-11T07:04:49.681Z,9.79
2023-03-11T07:09:56.374Z,9.98
2023-03-11T07:15:00.909Z,9.81
2023-03-11T07:20:07.722Z,9.82
2023-03-11T07:25:11.484Z,9.85
2023-03-11T07:30:15.890Z,9.66
2023-03-11T07:35:21.190Z,9.65
2023-03-11T07:40:24.856Z,9.55
2023-03-11T07:45:28.551Z,9.44
2023-03-11T07:50:33.930Z,9.28
2023-03-11T07:55:37.639Z,9.18
2023-03-11T08:00:41.266Z,9.16
2023-03-11T08:05:47.238Z,9.18
2023-03-11T08:10:50.873Z,9.09
2023-03-11T08:15:54.563Z,9.02
2023-03-11T08:21:00.126Z,8.95
2023-03-11T08:26:05.021Z,9.03
2023-03-11T08:31:13.991Z,8.82
2023-03-11T08:36:20.908Z,8.77
2023-03-11T08:41:24.725Z,8.79
2023-03-11T08:46:30.775Z,8.66
2023-03-11T08:51:36.016Z,8.50
2023-03-11T08:56:39.770Z,8.45
2023-03-11T09:01:43.442Z,8.52
2023-03-11T09:06:48.743Z,8.38
2023-03-11T09:11:52.377Z,8.29
2023-03-11T09:16:56.026Z,8.29
2023-03-11T09:22:03.699Z,8.27
2023-03-11T09:27:07.416Z,8.30
2023-03-11T09:32:14.004Z,8.37
2023-03-11T09:37:20.098Z,8.26
2023-03-11T09:42:34.620Z,8.20
2023-03-11T09:47:48.816Z,8.25
2023-03-11T09:53:03.512Z,8.27
2023-03-11T09:58:16.723Z,8.02
2023-03-11T10:03:33.701Z,8.16
2023-03-11T10:08:45.088Z,8.12
2023-03-11T10:14:01.710Z,8.15
2023-03-11T10:19:09.918Z,8.19
2023-03-11T10:24:37.036Z,8.22
2023-03-11T10:29:48.679Z,8.16
2023-03-11T10:34:56.626Z,8.16
2023-03-11T10:40:15.655Z,8.09
2023-03-11T10:45:20.048Z,8.11
2023-03-11T10:50:23.715Z,8.16
2023-03-11T10:55:29.061Z,8.13
2023-03-11T11:00:32.960Z,8.07
2023-03-11T11:05:36.595Z,8.08
2023-03-11T11:10:52.858Z,7.92
2023-03-11T11:16:01.439Z,7.94
2023-03-11T11:21:08.682Z,7.82
2023-03-11T11:26:20.248Z,7.81
2023-03-11T11:31:27.466Z,7.85
2023-03-11T11:36:33.200Z,7.77
2023-03-11T11:41:38.738Z,7.71
2023-03-11T11:46:46.967Z,7.66
2023-03-11T11:51:55.897Z,7.61
2023-03-11T11:57:11.206Z,7.60
2023-03-11T12:02:32.924Z,7.55
2023-03-11T12:07:48.616Z,7.40
2023-03-11T12:13:18.360Z,7.36
2023-03-11T12:18:28.999Z,7.30
2023-03-11T12:23:42.924Z,7.25
2023-03-11T12:28:53.620Z,7.20
2023-03-11T12:34:00.182Z,7.16
2023-03-11T12:39:05.867Z,7.19
2023-03-11T12:44:28.435Z,7.19
2023-03-11T12:49:33.093Z,7.07
2023-03-11T12:54:37.509Z,6.98
2023-03-11T13:00:08.377Z,6.99
2023-03-11T13:05:21.487Z,6.98
2023-03-11T13:10:40.109Z,7.02
2023-03-11T13:15:45.515Z,6.99
2023-03-11T13:20:57.323Z,7.09
2023-03-11T13:26:34.920Z,7.03
2023-03-11T13:31:51.127Z,7.53
2023-03-11T13:37:11.949Z,8.42
2023-03-11T13:42:27.305Z,7.90
2023-03-11T13:47:34.389Z,7.54
2023-03-11T13:52:44.393Z,7.42
2023-03-11T13:57:52.338Z,7.32
2023-03-11T14:02:59.427Z,7.38
2023-03-11T14:08:22.299Z,7.44
2023-03-11T14:13:27.257Z,7.38
2023-03-11T14:18:37.772Z,7.42
2023-03-11T14:23:45.920Z,7.46
2023-03-11T14:28:52.939Z,7.45
2023-03-11T14:33:59.928Z,7.43
2023-03-11T14:39:03.592Z,7.49
2023-03-11T14:44:09.064Z,7.55
2023-03-11T14:49:22.129Z,7.62
2023-03-11T14:54:30.013Z,7.64
2023-03-11T14:59:35.771Z,7.69
2023-03-11T15:04:43.058Z,7.79
2023-03-11T15:09:46.930Z,7.89
2023-03-11T15:14:52.650Z,8.00
2023-03-11T15:19:58.058Z,7.92
2023-03-11T15:25:02.966Z,8.16
2023-03-11T15:30:20.470Z,8.27
2023-03-11T15:35:27.153Z,8.42
2023-03-11T15:40:44.554Z,8.53
2023-03-11T15:45:49.206Z,8.71
2023-03-11T15:50:55.658Z,8.95
2023-03-11T15:56:07.236Z,9.10
2023-03-11T16:01:11.664Z,9.40
2023-03-11T16:06:16.958Z,9.81
2023-03-11T16:11:20.620Z,9.85
2023-03-11T16:16:24.267Z,9.95
2023-03-11T16:21:36.368Z,10.04
2023-03-11T16:26:40.033Z,10.17
2023-03-11T16:31:43.665Z,10.17
2023-03-11T16:36:49.723Z,10.33
2023-03-11T16:41:53.390Z,10.53
2023-03-11T16:46:57.077Z,10.65
2023-03-11T16:52:03.425Z,10.80
2023-03-11T16:57:07.117Z,10.80
2023-03-11T17:02:11.773Z,10.89
2023-03-11T17:07:17.208Z,10.80
2023-03-11T17:12:20.924Z,11.11
2023-03-11T17:17:24.983Z,11.19
2023-03-11T17:22:30.339Z,11.36
2023-03-11T17:27:33.992Z,11.40
2023-03-11T17:32:37.686Z,11.15
2023-03-11T17:37:43.005Z,11.24
2023-03-11T17:42:46.625Z,11.20
2023-03-11T17:47:50.281Z,11.12
2023-03-11T17:52:55.607Z,10.92
2023-03-11T17:57:59.344Z,10.85
2023-03-11T18:03:03.030Z,10.86
2023-03-11T18:08:08.410Z,10.63
2023-03-11T18:13:12.096Z,10.55
2023-03-11T18:18:15.717Z,10.51
2023-03-11T18:23:21.088Z,10.63
2023-03-11T18:28:24.712Z,10.81
2023-03-11T18:33:28.345Z,10.89
2023-03-11T18:38:33.642Z,11.71
2023-03-11T18:43:37.595Z,12.50
2023-03-11T18:48:44.787Z,12.07
2023-03-11T18:53:50.078Z,12.02
2023-03-11T18:58:53.696Z,11.87
2023-03-11T19:03:58.619Z,11.93
2023-03-11T19:09:03.957Z,11.94
2023-03-11T19:14:07.600Z,11.94
2023-03-11T19:19:12.052Z,11.85
2023-03-11T19:24:17.603Z,11.93
2023-03-11T19:29:21.277Z,12.06
2023-03-11T19:34:24.930Z,12.36
2023-03-11T19:39:30.254Z,12.70
2023-03-11T19:44:33.930Z,12.97
2023-03-11T19:49:37.632Z,12.91
2023-03-11T19:54:43.100Z,13.31
2023-03-11T19:59:46.894Z,13.55
2023-03-11T20:04:50.625Z,13.80
2023-03-11T20:09:55.994Z,13.71
2023-03-11T20:14:59.856Z,13.79
2023-03-11T20:20:03.611Z,13.98
2023-03-11T20:25:09.989Z,14.11
2023-03-11T20:30:14.818Z,14.32
2023-03-11T20:35:18.801Z,14.32
2023-03-11T20:40:24.228Z,13.96
2023-03-11T20:45:28.182Z,13.88
2023-03-11T20:50:31.903Z,13.53
2023-03-11T20:55:39.409Z,13.61
2023-03-11T21:00:43.160Z,13.68
2023-03-11T21:05:46.916Z,13.75
2023-03-11T21:10:52.202Z,14.00
2023-03-11T21:15:55.983Z,13.76
2023-03-11T21:20:59.712Z,14.05
2023-03-11T21:26:06.154Z,14.42
2023-03-11T21:31:11.425Z,14.20
2023-03-11T21:36:16.647Z,14.03
2023-03-11T21:41:23.758Z,14.11
2023-03-11T21:46:30.105Z,14.10
2023-03-11T21:51:33.905Z,14.04
2023-03-11T21:56:39.299Z,13.93
2023-03-11T22:01:43.184Z,13.92
2023-03-11T22:06:46.875Z,13.86
2023-03-11T22:11:52.264Z,13.95
2023-03-11T22:16:56.188Z,13.96
2023-03-11T22:21:59.905Z,13.60
2023-03-11T22:27:05.342Z,13.51
2023-03-11T22:32:08.960Z,13.66
2023-03-11T22:37:12.644Z,13.67
2023-03-11T22:42:18.011Z,13.57
2023-03-11T22:47:21.686Z,13.34
2023-03-11T22:52:25.427Z,13.08
2023-03-11T22:57:30.759Z,13.34
2023-03-11T23:02:34.415Z,13.37
2023-03-11T23:07:38.068Z,13.33
2023-03-11T23:12:43.474Z,13.23
2023-03-11T23:17:47.256Z,13.24
2023-03-11T23:22:50.942Z,13.50
2023-03-11T23:27:56.269Z,13.55
2023-03-11T23:33:00.056Z,13.54
2023-03-11T23:38:03.786Z,13.41
2023-03-11T23:43:09.134Z,13.41
2023-03-11T23:48:12.838Z,13.42
2023-03-11T23:53:17.673Z,13.44
2023-03-11T23:58:23.505Z,13.54
